sensor_id;sensor_type;location;lat;lon;timestamp;P1;durP1;ratioP1;P2;durP2;ratioP2
15063;SDS011;7631;52.088;5.088;2023-07-20T00:01:33;2.50;;;1.50;;
15063;SDS011;7631;52.088;5.088;2023-07-20T00:03:59;2.00;;;1.53;;
15063;SDS011;7631;52.088;5.088;2023-07-20T00:06:24;2.00;;;1.63;;
15063;SDS011;7631;52.088;5.088;2023-07-20T00:08:52;3.27;;;1.53;;
15063;SDS011;7631;52.088;5.088;2023-07-20T00:11:17;1.60;;;1.50;;
15063;SDS011;7631;52.088;5.088;2023-07-20T00:13:43;1.80;;;1.60;;
15063;SDS011;7631;52.088;5.088;2023-07-20T00:16:08;1.87;;;1.50;;
15063;SDS011;7631;52.088;5.088;2023-07-20T00:18:34;1.47;;;1.30;;
15063;SDS011;7631;52.088;5.088;2023-07-20T00:20:59;1.40;;;1.27;;
15063;SDS011;7631;52.088;5.088;2023-07-20T00:23:25;2.37;;;1.40;;
15063;SDS011;7631;52.088;5.088;2023-07-20T00:25:50;1.50;;;1.30;;
15063;SDS011;7631;52.088;5.088;2023-07-20T00:28:15;2.80;;;1.60;;
15063;SDS011;7631;52.088;5.088;2023-07-20T00:30:40;1.37;;;1.20;;
15063;SDS011;7631;52.088;5.088;2023-07-20T00:33:10;1.57;;;1.10;;
15063;SDS011;7631;52.088;5.088;2023-07-20T00:35:35;2.17;;;1.43;;
15063;SDS011;7631;52.088;5.088;2023-07-20T00:38:00;1.50;;;1.10;;
15063;SDS011;7631;52.088;5.088;2023-07-20T00:40:26;1.20;;;1.10;;
15063;SDS011;7631;52.088;5.088;2023-07-20T00:42:51;1.50;;;1.27;;
15063;SDS011;7631;52.088;5.088;2023-07-20T00:45:16;1.30;;;1.07;;
15063;SDS011;7631;52.088;5.088;2023-07-20T00:47:41;1.37;;;0.90;;
15063;SDS011;7631;52.088;5.088;2023-07-20T00:50:07;1.77;;;1.10;;
15063;SDS011;7631;52.088;5.088;2023-07-20T00:52:32;1.77;;;1.30;;
15063;SDS011;7631;52.088;5.088;2023-07-20T00:54:58;1.03;;;0.90;;
15063;SDS011;7631;52.088;5.088;2023-07-20T00:57:23;0.90;;;0.90;;
15063;SDS011;7631;52.088;5.088;2023-07-20T00:59:49;1.03;;;0.90;;
15063;SDS011;7631;52.088;5.088;2023-07-20T01:02:15;1.63;;;1.20;;
15063;SDS011;7631;52.088;5.088;2023-07-20T01:04:40;1.03;;;0.93;;
15063;SDS011;7631;52.088;5.088;2023-07-20T01:09:53;1.00;;;0.97;;
15063;SDS011;7631;52.088;5.088;2023-07-20T01:12:26;1.10;;;1.00;;
15063;SDS011;7631;52.088;5.088;2023-07-20T01:14:52;1.00;;;0.90;;
15063;SDS011;7631;52.088;5.088;2023-07-20T01:17:18;1.13;;;0.93;;
15063;SDS011;7631;52.088;5.088;2023-07-20T01:19:43;1.30;;;0.90;;
15063;SDS011;7631;52.088;5.088;2023-07-20T01:29:49;1.30;;;0.90;;
15063;SDS011;7631;52.088;5.088;2023-07-20T01:32:19;1.10;;;1.00;;
15063;SDS011;7631;52.088;5.088;2023-07-20T01:34:46;0.80;;;0.80;;
15063;SDS011;7631;52.088;5.088;2023-07-20T01:37:12;1.00;;;0.80;;
15063;SDS011;7631;52.088;5.088;2023-07-20T01:39:38;0.80;;;0.80;;
15063;SDS011;7631;52.088;5.088;2023-07-20T01:42:04;1.37;;;0.80;;
15063;SDS011;7631;52.088;5.088;2023-07-20T01:44:29;0.90;;;0.80;;
15063;SDS011;7631;52.088;5.088;2023-07-20T01:46:54;0.70;;;0.70;;
15063;SDS011;7631;52.088;5.088;2023-07-20T01:49:19;0.90;;;0.90;;
15063;SDS011;7631;52.088;5.088;2023-07-20T01:51:45;1.13;;;0.80;;
15063;SDS011;7631;52.088;5.088;2023-07-20T01:54:10;0.83;;;0.73;;
15063;SDS011;7631;52.088;5.088;2023-07-20T01:56:35;1.30;;;0.80;;
15063;SDS011;7631;52.088;5.088;2023-07-20T01:59:00;0.80;;;0.80;;
15063;SDS011;7631;52.088;5.088;2023-07-20T02:01:25;1.00;;;0.93;;
15063;SDS011;7631;52.088;5.088;2023-07-20T02:03:53;0.70;;;0.70;;
15063;SDS011;7631;52.088;5.088;2023-07-20T02:06:19;1.00;;;0.80;;
15063;SDS011;7631;52.088;5.088;2023-07-20T02:08:44;1.33;;;0.83;;
15063;SDS011;7631;52.088;5.088;2023-07-20T02:11:09;1.00;;;0.80;;
15063;SDS011;7631;52.088;5.088;2023-07-20T02:13:35;1.10;;;0.90;;
15063;SDS011;7631;52.088;5.088;2023-07-20T02:16:00;0.60;;;0.60;;
15063;SDS011;7631;52.088;5.088;2023-07-20T02:18:25;0.70;;;0.70;;
15063;SDS011;7631;52.088;5.088;2023-07-20T02:20:52;1.10;;;0.90;;
15063;SDS011;7631;52.088;5.088;2023-07-20T02:23:17;0.70;;;0.70;;
15063;SDS011;7631;52.088;5.088;2023-07-20T02:25:43;0.80;;;0.80;;
15063;SDS011;7631;52.088;5.088;2023-07-20T02:28:09;0.80;;;0.80;;
15063;SDS011;7631;52.088;5.088;2023-07-20T02:30:37;1.10;;;0.80;;
15063;SDS011;7631;52.088;5.088;2023-07-20T02:33:02;1.00;;;0.80;;
15063;SDS011;7631;52.088;5.088;2023-07-20T02:35:30;1.20;;;0.83;;
15063;SDS011;7631;52.088;5.088;2023-07-20T02:37:55;1.10;;;0.90;;
15063;SDS011;7631;52.088;5.088;2023-07-20T02:40:20;0.90;;;0.80;;
15063;SDS011;7631;52.088;5.088;2023-07-20T02:42:46;0.73;;;0.57;;
15063;SDS011;7631;52.088;5.088;2023-07-20T02:45:11;1.03;;;0.70;;
15063;SDS011;7631;52.088;5.088;2023-07-20T02:47:37;1.30;;;0.63;;
15063;SDS011;7631;52.088;5.088;2023-07-20T02:50:02;0.70;;;0.70;;
15063;SDS011;7631;52.088;5.088;2023-07-20T02:52:27;1.03;;;0.87;;
15063;SDS011;7631;52.088;5.088;2023-07-20T02:54:54;0.83;;;0.70;;
15063;SDS011;7631;52.088;5.088;2023-07-20T02:57:19;0.87;;;0.87;;
15063;SDS011;7631;52.088;5.088;2023-07-20T02:59:45;0.97;;;0.80;;
15063;SDS011;7631;52.088;5.088;2023-07-20T03:02:10;0.80;;;0.80;;
15063;SDS011;7631;52.088;5.088;2023-07-20T03:04:35;0.80;;;0.70;;
15063;SDS011;7631;52.088;5.088;2023-07-20T03:07:02;0.83;;;0.70;;
15063;SDS011;7631;52.088;5.088;2023-07-20T03:09:28;0.70;;;0.70;;
15063;SDS011;7631;52.088;5.088;2023-07-20T03:11:54;0.80;;;0.60;;
15063;SDS011;7631;52.088;5.088;2023-07-20T03:14:19;0.60;;;0.60;;
15063;SDS011;7631;52.088;5.088;2023-07-20T03:16:45;1.17;;;0.90;;
15063;SDS011;7631;52.088;5.088;2023-07-20T03:19:10;0.70;;;0.70;;
15063;SDS011;7631;52.088;5.088;2023-07-20T03:21:35;1.00;;;0.80;;
15063;SDS011;7631;52.088;5.088;2023-07-20T03:24:05;0.80;;;0.80;;
15063;SDS011;7631;52.088;5.088;2023-07-20T03:26:31;1.03;;;0.90;;
15063;SDS011;7631;52.088;5.088;2023-07-20T03:28:56;0.70;;;0.70;;
15063;SDS011;7631;52.088;5.088;2023-07-20T03:31:21;1.07;;;0.80;;
15063;SDS011;7631;52.088;5.088;2023-07-20T03:33:46;1.47;;;1.00;;
15063;SDS011;7631;52.088;5.088;2023-07-20T03:36:11;0.60;;;0.60;;
15063;SDS011;7631;52.088;5.088;2023-07-20T03:38:37;0.80;;;0.80;;
15063;SDS011;7631;52.088;5.088;2023-07-20T03:41:02;0.70;;;0.70;;
15063;SDS011;7631;52.088;5.088;2023-07-20T03:43:28;0.93;;;0.87;;
15063;SDS011;7631;52.088;5.088;2023-07-20T03:45:53;0.93;;;0.70;;
15063;SDS011;7631;52.088;5.088;2023-07-20T03:48:19;0.73;;;0.60;;
15063;SDS011;7631;52.088;5.088;2023-07-20T03:50:46;0.60;;;0.60;;
15063;SDS011;7631;52.088;5.088;2023-07-20T03:53:12;0.90;;;0.77;;
15063;SDS011;7631;52.088;5.088;2023-07-20T03:55:38;0.77;;;0.70;;
15063;SDS011;7631;52.088;5.088;2023-07-20T03:58:05;0.80;;;0.70;;
15063;SDS011;7631;52.088;5.088;2023-07-20T04:00:30;0.90;;;0.60;;
15063;SDS011;7631;52.088;5.088;2023-07-20T04:02:55;0.77;;;0.70;;
15063;SDS011;7631;52.088;5.088;2023-07-20T04:05:21;0.80;;;0.77;;
15063;SDS011;7631;52.088;5.088;2023-07-20T04:07:46;0.77;;;0.70;;
15063;SDS011;7631;52.088;5.088;2023-07-20T04:10:11;1.27;;;0.90;;
15063;SDS011;7631;52.088;5.088;2023-07-20T04:12:37;0.77;;;0.73;;
15063;SDS011;7631;52.088;5.088;2023-07-20T04:15:02;0.60;;;0.60;;
15063;SDS011;7631;52.088;5.088;2023-07-20T04:17:28;0.97;;;0.80;;
15063;SDS011;7631;52.088;5.088;2023-07-20T04:19:54;0.80;;;0.80;;
15063;SDS011;7631;52.088;5.088;2023-07-20T04:22:19;0.83;;;0.80;;
15063;SDS011;7631;52.088;5.088;2023-07-20T04:24:45;0.80;;;0.70;;
15063;SDS011;7631;52.088;5.088;2023-07-20T04:27:10;1.17;;;0.90;;
15063;SDS011;7631;52.088;5.088;2023-07-20T04:29:35;0.80;;;0.80;;
15063;SDS011;7631;52.088;5.088;2023-07-20T04:32:00;0.93;;;0.83;;
15063;SDS011;7631;52.088;5.088;2023-07-20T04:34:25;1.10;;;1.00;;
15063;SDS011;7631;52.088;5.088;2023-07-20T04:36:51;1.50;;;0.90;;
15063;SDS011;7631;52.088;5.088;2023-07-20T04:39:16;1.37;;;0.97;;
15063;SDS011;7631;52.088;5.088;2023-07-20T04:41:41;0.70;;;0.70;;
15063;SDS011;7631;52.088;5.088;2023-07-20T04:44:06;0.73;;;0.73;;
15063;SDS011;7631;52.088;5.088;2023-07-20T04:46:32;0.80;;;0.80;;
15063;SDS011;7631;52.088;5.088;2023-07-20T04:48:57;1.00;;;0.70;;
15063;SDS011;7631;52.088;5.088;2023-07-20T04:51:22;0.73;;;0.60;;
15063;SDS011;7631;52.088;5.088;2023-07-20T04:53:48;0.97;;;0.80;;
15063;SDS011;7631;52.088;5.088;2023-07-20T04:56:13;0.80;;;0.80;;
15063;SDS011;7631;52.088;5.088;2023-07-20T04:58:38;0.60;;;0.60;;
15063;SDS011;7631;52.088;5.088;2023-07-20T05:01:03;0.80;;;0.70;;
15063;SDS011;7631;52.088;5.088;2023-07-20T05:03:29;0.93;;;0.73;;
15063;SDS011;7631;52.088;5.088;2023-07-20T05:05:54;0.93;;;0.80;;
15063;SDS011;7631;52.088;5.088;2023-07-20T05:08:19;0.80;;;0.80;;
15063;SDS011;7631;52.088;5.088;2023-07-20T05:10:44;0.67;;;0.67;;
15063;SDS011;7631;52.088;5.088;2023-07-20T05:13:10;0.80;;;0.80;;
15063;SDS011;7631;52.088;5.088;2023-07-20T05:15:35;0.70;;;0.70;;
15063;SDS011;7631;52.088;5.088;2023-07-20T05:18:00;1.00;;;0.63;;
15063;SDS011;7631;52.088;5.088;2023-07-20T05:20:26;1.40;;;0.80;;
15063;SDS011;7631;52.088;5.088;2023-07-20T05:22:52;0.53;;;0.53;;
15063;SDS011;7631;52.088;5.088;2023-07-20T05:25:17;0.80;;;0.80;;
15063;SDS011;7631;52.088;5.088;2023-07-20T05:27:44;0.93;;;0.77;;
15063;SDS011;7631;52.088;5.088;2023-07-20T05:30:11;0.60;;;0.60;;
15063;SDS011;7631;52.088;5.088;2023-07-20T05:32:36;0.90;;;0.70;;
15063;SDS011;7631;52.088;5.088;2023-07-20T05:35:02;1.00;;;0.70;;
15063;SDS011;7631;52.088;5.088;2023-07-20T05:37:27;0.97;;;0.80;;
15063;SDS011;7631;52.088;5.088;2023-07-20T05:39:52;1.30;;;0.70;;
15063;SDS011;7631;52.088;5.088;2023-07-20T05:42:17;0.73;;;0.60;;
15063;SDS011;7631;52.088;5.088;2023-07-20T05:44:43;0.67;;;0.60;;
15063;SDS011;7631;52.088;5.088;2023-07-20T05:47:08;1.13;;;0.70;;
15063;SDS011;7631;52.088;5.088;2023-07-20T05:49:34;0.77;;;0.60;;
15063;SDS011;7631;52.088;5.088;2023-07-20T05:51:59;0.80;;;0.70;;
15063;SDS011;7631;52.088;5.088;2023-07-20T05:54:25;0.80;;;0.70;;
15063;SDS011;7631;52.088;5.088;2023-07-20T05:56:51;0.60;;;0.60;;
15063;SDS011;7631;52.088;5.088;2023-07-20T05:59:16;0.50;;;0.50;;
15063;SDS011;7631;52.088;5.088;2023-07-20T06:01:43;0.70;;;0.60;;
15063;SDS011;7631;52.088;5.088;2023-07-20T06:04:08;0.60;;;0.60;;
15063;SDS011;7631;52.088;5.088;2023-07-20T06:06:34;0.50;;;0.50;;
15063;SDS011;7631;52.088;5.088;2023-07-20T06:08:59;0.83;;;0.57;;
15063;SDS011;7631;52.088;5.088;2023-07-20T06:11:28;0.73;;;0.73;;
15063;SDS011;7631;52.088;5.088;2023-07-20T06:13:54;1.10;;;0.70;;
15063;SDS011;7631;52.088;5.088;2023-07-20T06:16:19;0.83;;;0.80;;
15063;SDS011;7631;52.088;5.088;2023-07-20T06:18:44;0.80;;;0.70;;
15063;SDS011;7631;52.088;5.088;2023-07-20T06:21:10;0.60;;;0.60;;
15063;SDS011;7631;52.088;5.088;2023-07-20T06:23:35;0.80;;;0.60;;
15063;SDS011;7631;52.088;5.088;2023-07-20T06:26:01;1.00;;;0.80;;
15063;SDS011;7631;52.088;5.088;2023-07-20T06:28:26;0.60;;;0.50;;
15063;SDS011;7631;52.088;5.088;2023-07-20T06:30:51;0.63;;;0.60;;
15063;SDS011;7631;52.088;5.088;2023-07-20T06:33:16;0.40;;;0.40;;
15063;SDS011;7631;52.088;5.088;2023-07-20T06:35:42;1.00;;;0.50;;
15063;SDS011;7631;52.088;5.088;2023-07-20T06:38:10;0.47;;;0.47;;
15063;SDS011;7631;52.088;5.088;2023-07-20T06:40:35;0.67;;;0.50;;
15063;SDS011;7631;52.088;5.088;2023-07-20T06:43:00;2.40;;;0.60;;
15063;SDS011;7631;52.088;5.088;2023-07-20T06:45:26;0.80;;;0.40;;
15063;SDS011;7631;52.088;5.088;2023-07-20T06:47:51;0.93;;;0.70;;
15063;SDS011;7631;52.088;5.088;2023-07-20T06:50:16;0.60;;;0.50;;
15063;SDS011;7631;52.088;5.088;2023-07-20T06:52:42;0.97;;;0.57;;
15063;SDS011;7631;52.088;5.088;2023-07-20T06:55:07;0.50;;;0.50;;
15063;SDS011;7631;52.088;5.088;2023-07-20T06:57:32;0.50;;;0.50;;
15063;SDS011;7631;52.088;5.088;2023-07-20T06:59:57;0.93;;;0.70;;
15063;SDS011;7631;52.088;5.088;2023-07-20T07:02:23;0.87;;;0.50;;
15063;SDS011;7631;52.088;5.088;2023-07-20T07:04:48;0.53;;;0.53;;
15063;SDS011;7631;52.088;5.088;2023-07-20T07:07:14;0.80;;;0.70;;
15063;SDS011;7631;52.088;5.088;2023-07-20T07:09:39;0.57;;;0.50;;
15063;SDS011;7631;52.088;5.088;2023-07-20T07:12:04;0.57;;;0.57;;
15063;SDS011;7631;52.088;5.088;2023-07-20T07:14:30;0.40;;;0.33;;
15063;SDS011;7631;52.088;5.088;2023-07-20T07:16:55;1.07;;;0.50;;
15063;SDS011;7631;52.088;5.088;2023-07-20T07:19:20;0.50;;;0.50;;
15063;SDS011;7631;52.088;5.088;2023-07-20T07:21:46;0.40;;;0.40;;
15063;SDS011;7631;52.088;5.088;2023-07-20T07:24:11;0.63;;;0.50;;
15063;SDS011;7631;52.088;5.088;2023-07-20T07:26:37;0.87;;;0.50;;
15063;SDS011;7631;52.088;5.088;2023-07-20T07:29:02;0.67;;;0.67;;
15063;SDS011;7631;52.088;5.088;2023-07-20T07:31:34;0.47;;;0.47;;
15063;SDS011;7631;52.088;5.088;2023-07-20T07:33:59;0.93;;;0.40;;
15063;SDS011;7631;52.088;5.088;2023-07-20T07:36:24;0.47;;;0.47;;
15063;SDS011;7631;52.088;5.088;2023-07-20T07:38:50;0.50;;;0.50;;
15063;SDS011;7631;52.088;5.088;2023-07-20T07:41:15;0.60;;;0.60;;
15063;SDS011;7631;52.088;5.088;2023-07-20T07:43:41;0.90;;;0.60;;
15063;SDS011;7631;52.088;5.088;2023-07-20T07:46:06;0.50;;;0.50;;
15063;SDS011;7631;52.088;5.088;2023-07-20T07:48:31;0.43;;;0.43;;
15063;SDS011;7631;52.088;5.088;2023-07-20T07:50:56;0.93;;;0.50;;
15063;SDS011;7631;52.088;5.088;2023-07-20T07:53:21;0.43;;;0.43;;
15063;SDS011;7631;52.088;5.088;2023-07-20T07:55:47;0.37;;;0.30;;
15063;SDS011;7631;52.088;5.088;2023-07-20T07:58:12;0.77;;;0.50;;
15063;SDS011;7631;52.088;5.088;2023-07-20T08:00:38;0.40;;;0.40;;
15063;SDS011;7631;52.088;5.088;2023-07-20T08:03:03;0.50;;;0.50;;
15063;SDS011;7631;52.088;5.088;2023-07-20T08:05:29;0.50;;;0.37;;
15063;SDS011;7631;52.088;5.088;2023-07-20T08:07:54;0.60;;;0.60;;
15063;SDS011;7631;52.088;5.088;2023-07-20T08:10:19;0.90;;;0.63;;
15063;SDS011;7631;52.088;5.088;2023-07-20T08:12:44;0.50;;;0.50;;
15063;SDS011;7631;52.088;5.088;2023-07-20T08:15:13;0.57;;;0.50;;
15063;SDS011;7631;52.088;5.088;2023-07-20T08:17:39;0.80;;;0.40;;
15063;SDS011;7631;52.088;5.088;2023-07-20T08:20:04;0.60;;;0.50;;
15063;SDS011;7631;52.088;5.088;2023-07-20T08:22:31;0.47;;;0.47;;
15063;SDS011;7631;52.088;5.088;2023-07-20T08:24:56;0.37;;;0.37;;
15063;SDS011;7631;52.088;5.088;2023-07-20T08:27:21;0.60;;;0.60;;
15063;SDS011;7631;52.088;5.088;2023-07-20T08:29:47;0.83;;;0.50;;
15063;SDS011;7631;52.088;5.088;2023-07-20T08:32:12;0.63;;;0.47;;
15063;SDS011;7631;52.088;5.088;2023-07-20T08:34:39;0.40;;;0.40;;
15063;SDS011;7631;52.088;5.088;2023-07-20T08:37:04;0.73;;;0.60;;
15063;SDS011;7631;52.088;5.088;2023-07-20T08:39:30;0.73;;;0.43;;
15063;SDS011;7631;52.088;5.088;2023-07-20T08:41:55;0.50;;;0.50;;
15063;SDS011;7631;52.088;5.088;2023-07-20T08:44:22;0.60;;;0.50;;
15063;SDS011;7631;52.088;5.088;2023-07-20T08:46:48;0.93;;;0.50;;
15063;SDS011;7631;52.088;5.088;2023-07-20T08:49:13;1.25;;;0.50;;
15063;SDS011;7631;52.088;5.088;2023-07-20T08:51:40;0.75;;;0.70;;
15063;SDS011;7631;52.088;5.088;2023-07-20T08:54:06;0.68;;;0.50;;
15063;SDS011;7631;52.088;5.088;2023-07-20T08:56:33;0.50;;;0.50;;
15063;SDS011;7631;52.088;5.088;2023-07-20T08:58:58;0.50;;;0.50;;
15063;SDS011;7631;52.088;5.088;2023-07-20T09:01:24;0.50;;;0.38;;
15063;SDS011;7631;52.088;5.088;2023-07-20T09:03:50;0.75;;;0.60;;
15063;SDS011;7631;52.088;5.088;2023-07-20T09:06:15;1.13;;;0.50;;
15063;SDS011;7631;52.088;5.088;2023-07-20T09:08:41;0.40;;;0.40;;
15063;SDS011;7631;52.088;5.088;2023-07-20T09:11:07;0.57;;;0.57;;
15063;SDS011;7631;52.088;5.088;2023-07-20T09:13:33;0.40;;;0.40;;
15063;SDS011;7631;52.088;5.088;2023-07-20T09:15:58;0.47;;;0.38;;
15063;SDS011;7631;52.088;5.088;2023-07-20T09:18:27;0.52;;;0.47;;
15063;SDS011;7631;52.088;5.088;2023-07-20T09:20:53;0.70;;;0.65;;
15063;SDS011;7631;52.088;5.088;2023-07-20T09:23:19;0.40;;;0.40;;
15063;SDS011;7631;52.088;5.088;2023-07-20T09:25:44;0.50;;;0.40;;
15063;SDS011;7631;52.088;5.088;2023-07-20T09:28:13;0.43;;;0.25;;
15063;SDS011;7631;52.088;5.088;2023-07-20T09:30:39;0.68;;;0.60;;
15063;SDS011;7631;52.088;5.088;2023-07-20T09:33:04;0.40;;;0.40;;
15063;SDS011;7631;52.088;5.088;2023-07-20T09:35:29;0.47;;;0.47;;
15063;SDS011;7631;52.088;5.088;2023-07-20T09:37:58;0.50;;;0.50;;
15063;SDS011;7631;52.088;5.088;2023-07-20T09:40:24;0.75;;;0.50;;
15063;SDS011;7631;52.088;5.088;2023-07-20T09:42:50;0.50;;;0.50;;
15063;SDS011;7631;52.088;5.088;2023-07-20T09:45:16;0.82;;;0.30;;
15063;SDS011;7631;52.088;5.088;2023-07-20T09:47:42;0.40;;;0.40;;
15063;SDS011;7631;52.088;5.088;2023-07-20T09:50:08;0.95;;;0.40;;
15063;SDS011;7631;52.088;5.088;2023-07-20T09:52:39;0.38;;;0.38;;
15063;SDS011;7631;52.088;5.088;2023-07-20T09:55:06;0.65;;;0.50;;
15063;SDS011;7631;52.088;5.088;2023-07-20T09:57:32;0.32;;;0.30;;
15063;SDS011;7631;52.088;5.088;2023-07-20T09:59:58;0.50;;;0.47;;
15063;SDS011;7631;52.088;5.088;2023-07-20T10:02:30;0.40;;;0.35;;
15063;SDS011;7631;52.088;5.088;2023-07-20T10:04:58;0.47;;;0.40;;
15063;SDS011;7631;52.088;5.088;2023-07-20T10:07:25;0.40;;;0.40;;
15063;SDS011;7631;52.088;5.088;2023-07-20T10:09:52;0.40;;;0.40;;
15063;SDS011;7631;52.088;5.088;2023-07-20T10:12:18;0.70;;;0.60;;
15063;SDS011;7631;52.088;5.088;2023-07-20T10:14:48;0.45;;;0.45;;
15063;SDS011;7631;52.088;5.088;2023-07-20T10:17:15;0.55;;;0.50;;
15063;SDS011;7631;52.088;5.088;2023-07-20T10:19:43;0.40;;;0.40;;
15063;SDS011;7631;52.088;5.088;2023-07-20T10:22:12;0.40;;;0.40;;
15063;SDS011;7631;52.088;5.088;2023-07-20T10:24:38;0.40;;;0.40;;
15063;SDS011;7631;52.088;5.088;2023-07-20T10:27:04;0.52;;;0.52;;
15063;SDS011;7631;52.088;5.088;2023-07-20T10:29:30;0.70;;;0.40;;
15063;SDS011;7631;52.088;5.088;2023-07-20T10:31:56;0.30;;;0.30;;
15063;SDS011;7631;52.088;5.088;2023-07-20T10:34:22;0.40;;;0.40;;
15063;SDS011;7631;52.088;5.088;2023-07-20T10:36:47;0.50;;;0.50;;
15063;SDS011;7631;52.088;5.088;2023-07-20T10:39:32;0.40;;;0.40;;
15063;SDS011;7631;52.088;5.088;2023-07-20T10:42:06;0.40;;;0.40;;
15063;SDS011;7631;52.088;5.088;2023-07-20T10:44:33;0.45;;;0.45;;
15063;SDS011;7631;52.088;5.088;2023-07-20T10:46:59;0.43;;;0.43;;
15063;SDS011;7631;52.088;5.088;2023-07-20T10:49:24;0.73;;;0.55;;
15063;SDS011;7631;52.088;5.088;2023-07-20T10:51:56;1.00;;;0.45;;
15063;SDS011;7631;52.088;5.088;2023-07-20T10:56:47;0.70;;;0.70;;
15063;SDS011;7631;52.088;5.088;2023-07-20T11:01:54;0.68;;;0.40;;
15063;SDS011;7631;52.088;5.088;2023-07-20T11:04:22;0.40;;;0.32;;
15063;SDS011;7631;52.088;5.088;2023-07-20T11:07:02;0.52;;;0.50;;
15063;SDS011;7631;52.088;5.088;2023-07-20T11:09:33;0.60;;;0.40;;
15063;SDS011;7631;52.088;5.088;2023-07-20T11:12:17;0.52;;;0.50;;
15063;SDS011;7631;52.088;5.088;2023-07-20T11:14:46;0.43;;;0.43;;
15063;SDS011;7631;52.088;5.088;2023-07-20T11:17:18;0.57;;;0.50;;
15063;SDS011;7631;52.088;5.088;2023-07-20T11:19:47;0.70;;;0.40;;
15063;SDS011;7631;52.088;5.088;2023-07-20T11:22:13;0.60;;;0.50;;
15063;SDS011;7631;52.088;5.088;2023-07-20T11:24:41;0.70;;;0.60;;
15063;SDS011;7631;52.088;5.088;2023-07-20T11:27:07;0.40;;;0.40;;
15063;SDS011;7631;52.088;5.088;2023-07-20T11:29:32;0.47;;;0.47;;
15063;SDS011;7631;52.088;5.088;2023-07-20T11:31:59;0.45;;;0.45;;
15063;SDS011;7631;52.088;5.088;2023-07-20T11:34:25;0.47;;;0.47;;
15063;SDS011;7631;52.088;5.088;2023-07-20T11:36:51;0.40;;;0.40;;
15063;SDS011;7631;52.088;5.088;2023-07-20T11:39:17;0.73;;;0.40;;
15063;SDS011;7631;52.088;5.088;2023-07-20T11:42:02;0.75;;;0.60;;
15063;SDS011;7631;52.088;5.088;2023-07-20T11:44:28;0.75;;;0.43;;
15063;SDS011;7631;52.088;5.088;2023-07-20T11:47:12;0.52;;;0.30;;
15063;SDS011;7631;52.088;5.088;2023-07-20T11:49:38;0.85;;;0.68;;
15063;SDS011;7631;52.088;5.088;2023-07-20T11:52:04;0.50;;;0.50;;
15063;SDS011;7631;52.088;5.088;2023-07-20T11:54:30;0.35;;;0.35;;
15063;SDS011;7631;52.088;5.088;2023-07-20T11:56:55;0.50;;;0.50;;
15063;SDS011;7631;52.088;5.088;2023-07-20T11:59:23;0.50;;;0.50;;
15063;SDS011;7631;52.088;5.088;2023-07-20T12:01:49;0.60;;;0.60;;
15063;SDS011;7631;52.088;5.088;2023-07-20T12:04:14;0.50;;;0.50;;
15063;SDS011;7631;52.088;5.088;2023-07-20T12:06:39;0.50;;;0.50;;
15063;SDS011;7631;52.088;5.088;2023-07-20T12:09:05;0.45;;;0.40;;
15063;SDS011;7631;52.088;5.088;2023-07-20T12:11:31;0.63;;;0.45;;
15063;SDS011;7631;52.088;5.088;2023-07-20T12:13:57;0.60;;;0.60;;
15063;SDS011;7631;52.088;5.088;2023-07-20T12:16:26;0.30;;;0.30;;
15063;SDS011;7631;52.088;5.088;2023-07-20T12:18:51;0.52;;;0.52;;
15063;SDS011;7631;52.088;5.088;2023-07-20T12:21:23;0.50;;;0.50;;
15063;SDS011;7631;52.088;5.088;2023-07-20T12:23:49;0.70;;;0.60;;
15063;SDS011;7631;52.088;5.088;2023-07-20T12:26:14;0.60;;;0.50;;
15063;SDS011;7631;52.088;5.088;2023-07-20T12:28:40;0.73;;;0.50;;
15063;SDS011;7631;52.088;5.088;2023-07-20T12:31:06;1.38;;;0.65;;
15063;SDS011;7631;52.088;5.088;2023-07-20T12:33:31;0.65;;;0.60;;
15063;SDS011;7631;52.088;5.088;2023-07-20T12:35:57;0.55;;;0.55;;
15063;SDS011;7631;52.088;5.088;2023-07-20T12:38:24;0.52;;;0.47;;
15063;SDS011;7631;52.088;5.088;2023-07-20T12:40:49;0.50;;;0.50;;
15063;SDS011;7631;52.088;5.088;2023-07-20T12:43:14;0.50;;;0.50;;
15063;SDS011;7631;52.088;5.088;2023-07-20T12:45:40;0.57;;;0.50;;
15063;SDS011;7631;52.088;5.088;2023-07-20T12:48:06;0.60;;;0.60;;
15063;SDS011;7631;52.088;5.088;2023-07-20T12:50:31;0.50;;;0.50;;
15063;SDS011;7631;52.088;5.088;2023-07-20T12:52:56;0.50;;;0.50;;
15063;SDS011;7631;52.088;5.088;2023-07-20T12:55:22;0.57;;;0.50;;
15063;SDS011;7631;52.088;5.088;2023-07-20T12:57:47;1.05;;;0.60;;
15063;SDS011;7631;52.088;5.088;2023-07-20T13:00:13;0.55;;;0.45;;
15063;SDS011;7631;52.088;5.088;2023-07-20T13:02:39;0.88;;;0.70;;
15063;SDS011;7631;52.088;5.088;2023-07-20T13:05:04;0.52;;;0.52;;
15063;SDS011;7631;52.088;5.088;2023-07-20T13:07:33;0.50;;;0.50;;
15063;SDS011;7631;52.088;5.088;2023-07-20T13:09:59;0.60;;;0.50;;
15063;SDS011;7631;52.088;5.088;2023-07-20T13:12:25;0.80;;;0.60;;
15063;SDS011;7631;52.088;5.088;2023-07-20T13:14:51;0.60;;;0.60;;
15063;SDS011;7631;52.088;5.088;2023-07-20T13:17:16;0.65;;;0.65;;
15063;SDS011;7631;52.088;5.088;2023-07-20T13:19:41;0.50;;;0.50;;
15063;SDS011;7631;52.088;5.088;2023-07-20T13:22:06;1.02;;;0.52;;
15063;SDS011;7631;52.088;5.088;2023-07-20T13:24:32;0.50;;;0.50;;
15063;SDS011;7631;52.088;5.088;2023-07-20T13:26:57;0.90;;;0.60;;
15063;SDS011;7631;52.088;5.088;2023-07-20T13:29:23;0.50;;;0.50;;
15063;SDS011;7631;52.088;5.088;2023-07-20T13:31:48;0.60;;;0.60;;
15063;SDS011;7631;52.088;5.088;2023-07-20T13:34:14;0.50;;;0.50;;
15063;SDS011;7631;52.088;5.088;2023-07-20T13:36:39;0.85;;;0.60;;
15063;SDS011;7631;52.088;5.088;2023-07-20T13:39:04;0.73;;;0.60;;
15063;SDS011;7631;52.088;5.088;2023-07-20T13:41:30;0.88;;;0.63;;
15063;SDS011;7631;52.088;5.088;2023-07-20T13:43:57;0.63;;;0.52;;
15063;SDS011;7631;52.088;5.088;2023-07-20T13:46:22;0.70;;;0.60;;
15063;SDS011;7631;52.088;5.088;2023-07-20T13:48:47;0.55;;;0.40;;
15063;SDS011;7631;52.088;5.088;2023-07-20T13:51:13;0.77;;;0.55;;
15063;SDS011;7631;52.088;5.088;2023-07-20T13:53:38;0.50;;;0.50;;
15063;SDS011;7631;52.088;5.088;2023-07-20T13:56:04;0.50;;;0.50;;
15063;SDS011;7631;52.088;5.088;2023-07-20T13:58:29;0.77;;;0.50;;
15063;SDS011;7631;52.088;5.088;2023-07-20T14:00:54;0.70;;;0.70;;
15063;SDS011;7631;52.088;5.088;2023-07-20T14:03:20;0.50;;;0.50;;
15063;SDS011;7631;52.088;5.088;2023-07-20T14:05:45;0.60;;;0.60;;
15063;SDS011;7631;52.088;5.088;2023-07-20T14:08:11;0.60;;;0.60;;
15063;SDS011;7631;52.088;5.088;2023-07-20T14:10:36;0.50;;;0.50;;
15063;SDS011;7631;52.088;5.088;2023-07-20T14:13:01;1.10;;;0.50;;
15063;SDS011;7631;52.088;5.088;2023-07-20T14:15:26;0.50;;;0.50;;
15063;SDS011;7631;52.088;5.088;2023-07-20T14:17:52;0.60;;;0.60;;
15063;SDS011;7631;52.088;5.088;2023-07-20T14:20:17;0.55;;;0.52;;
15063;SDS011;7631;52.088;5.088;2023-07-20T14:22:42;0.50;;;0.50;;
15063;SDS011;7631;52.088;5.088;2023-07-20T14:25:07;0.50;;;0.50;;
15063;SDS011;7631;52.088;5.088;2023-07-20T14:27:33;0.50;;;0.50;;
15063;SDS011;7631;52.088;5.088;2023-07-20T14:29:58;0.60;;;0.60;;
15063;SDS011;7631;52.088;5.088;2023-07-20T14:32:23;0.40;;;0.40;;
15063;SDS011;7631;52.088;5.088;2023-07-20T14:34:49;0.60;;;0.50;;
15063;SDS011;7631;52.088;5.088;2023-07-20T14:37:14;0.50;;;0.50;;
15063;SDS011;7631;52.088;5.088;2023-07-20T14:39:40;0.70;;;0.60;;
15063;SDS011;7631;52.088;5.088;2023-07-20T14:42:05;0.50;;;0.50;;
15063;SDS011;7631;52.088;5.088;2023-07-20T14:44:32;0.50;;;0.50;;
15063;SDS011;7631;52.088;5.088;2023-07-20T14:46:58;0.77;;;0.60;;
15063;SDS011;7631;52.088;5.088;2023-07-20T14:49:23;0.70;;;0.70;;
15063;SDS011;7631;52.088;5.088;2023-07-20T14:51:50;0.50;;;0.50;;
15063;SDS011;7631;52.088;5.088;2023-07-20T14:54:16;0.52;;;0.45;;
15063;SDS011;7631;52.088;5.088;2023-07-20T14:56:48;0.50;;;0.50;;
15063;SDS011;7631;52.088;5.088;2023-07-20T14:59:13;0.98;;;0.70;;
15063;SDS011;7631;52.088;5.088;2023-07-20T15:01:39;0.60;;;0.60;;
15063;SDS011;7631;52.088;5.088;2023-07-20T15:04:04;0.60;;;0.60;;
15063;SDS011;7631;52.088;5.088;2023-07-20T15:06:29;0.43;;;0.40;;
15063;SDS011;7631;52.088;5.088;2023-07-20T15:08:55;0.68;;;0.50;;